»·PEaware :: BOE561 KLAX-KSLC

BOE561 :: KLAX-KSLC

FLIGHT INFORMATION

Flight Status: Arrived
Operator:
Boeing Commercial Airplane Group
More flights by this operator :: More flights under this callsign
Pilot: Ben F. (2808)
Aircraft: BOEING 737-200
(B732)
More flights by this aircraft type
Origin: KLAX Los Angeles Intl
United States
Destination: KSLC Salt Lake City Intl
United States
More flights between these airports :: More routes between these airports
Route: +SEBBY3 DAG J9 MLF JAMMN5
File this flight plan on PilotEdge
Remarks: Marcus is the best's ever...SUP BOSS?
Altitude:
(Current/Filed)
33,000ft
Speed:
(Current/Filed)
433kts
Departed: 07-Dec-18 09:05 AM
Arrived: 07-Dec-18 10:41 AM
Distance/Time
Traveled:
512nm/1:36
Distance/Time
To Go:
Arrived

Flight Plot

Page will automatically refresh every two minutes.

Flight plan parsing failed; only flown route is shown


Map Options




Map Legend


Flown Route
Filed Route
Departure Airport
Arrival Airport
Navaid (VOR, NDB)
Fix

Horizontal Profiles

Position Reports

Time Latitude Longitude Heading Altitude Ground
Speed
07-Dec-18 08:49 33.934281 -118.394297 175 136ft 0kts
07-Dec-18 08:50 33.934281 -118.394297 175 136ft 0kts
07-Dec-18 08:51 33.934281 -118.394297 175 136ft 0kts
07-Dec-18 08:52 33.934281 -118.394297 175 136ft 0kts
07-Dec-18 08:53 33.934281 -118.394297 175 136ft 0kts
07-Dec-18 08:54 33.934281 -118.394297 175 136ft 0kts
07-Dec-18 08:55 33.934281 -118.394297 175 136ft 0kts
07-Dec-18 08:56 33.934281 -118.394297 175 136ft 0kts
07-Dec-18 08:57 33.934281 -118.394297 175 136ft 0kts
07-Dec-18 08:58 33.934220 -118.394290 173 136ft 2kts
07-Dec-18 08:59 33.934224 -118.393894 11 136ft 0kts
07-Dec-18 09:00 33.935063 -118.393133 81 136ft 14kts
07-Dec-18 09:01 33.935771 -118.386151 84 136ft 22kts
07-Dec-18 09:02 33.936477 -118.382767 356 136ft 0kts
07-Dec-18 09:03 33.937055 -118.382927 317 136ft 14kts
07-Dec-18 09:04 33.933800 -118.421815 265 1050ft 181kts
07-Dec-18 09:05 33.916031 -118.487618 233 3411ft 237kts
07-Dec-18 09:06 33.868090 -118.545092 191 6247ft 272kts
07-Dec-18 09:07 33.795616 -118.522820 127 9228ft 286kts
07-Dec-18 09:08 33.784977 -118.428946 90 11741ft 303kts
07-Dec-18 09:09 33.782491 -118.324497 88 13929ft 323kts
07-Dec-18 09:10 33.782841 -118.214932 87 15604ft 349kts
07-Dec-18 09:11 33.783305 -118.098413 82 17497ft 356kts
07-Dec-18 09:12 33.838037 -118.008592 37 19114ft 347kts
07-Dec-18 09:13 33.913757 -117.936505 34 20573ft 353kts
07-Dec-18 09:14 33.992074 -117.864940 33 21903ft 358kts
07-Dec-18 09:15 34.071506 -117.792611 32 23093ft 362kts
07-Dec-18 09:16 34.141329 -117.705947 42 24084ft 373kts
07-Dec-18 09:17 34.210005 -117.613282 42 24991ft 379kts
07-Dec-18 09:18 34.280466 -117.517583 41 25788ft 385kts
07-Dec-18 09:19 34.351758 -117.420444 41 26442ft 391kts
07-Dec-18 09:20 34.423470 -117.322448 41 26979ft 397kts
07-Dec-18 09:21 34.496503 -117.222357 41 27500ft 400kts
07-Dec-18 09:22 34.570163 -117.121121 41 27949ft 403kts
07-Dec-18 09:23 34.645357 -117.017544 41 28072ft 416kts
07-Dec-18 09:24 34.722462 -116.911032 43 28265ft 429kts
07-Dec-18 09:25 34.801048 -116.801900 44 28749ft 433kts
07-Dec-18 09:26 34.880379 -116.691491 43 29250ft 436kts
07-Dec-18 09:27 34.959458 -116.581287 42 29778ft 435kts
07-Dec-18 09:28 35.043215 -116.476612 41 30260ft 433kts
07-Dec-18 09:29 35.123909 -116.375959 41 30762ft 430kts
07-Dec-18 09:30 35.204456 -116.275205 41 31354ft 425kts
07-Dec-18 09:31 35.278558 -116.182284 41 31802ft 422kts
07-Dec-18 09:32 35.359530 -116.080439 41 32279ft 419kts
07-Dec-18 09:33 35.440337 -115.978492 41 32654ft 418kts
07-Dec-18 09:34 35.520097 -115.877540 41 33140ft 413kts
07-Dec-18 09:35 35.599517 -115.776358 41 33226ft 419kts
07-Dec-18 09:36 35.680142 -115.673172 41 33236ft 425kts
07-Dec-18 09:37 35.761986 -115.568185 41 33237ft 431kts
07-Dec-18 09:38 35.844629 -115.462264 41 33237ft 435kts
07-Dec-18 09:39 35.924514 -115.359602 41 33228ft 438kts
07-Dec-18 09:40 36.000474 -115.261704 41 33223ft 440kts
07-Dec-18 09:41 36.083476 -115.154609 41 33215ft 440kts
07-Dec-18 09:42 36.165810 -115.050652 42 33211ft 444kts
07-Dec-18 09:43 36.249660 -114.944465 42 33211ft 450kts
07-Dec-18 09:44 36.336317 -114.834314 42 33212ft 456kts
07-Dec-18 09:45 36.423940 -114.721110 43 33211ft 461kts
07-Dec-18 09:46 36.511828 -114.606628 43 33211ft 461kts
07-Dec-18 09:47 36.599289 -114.492304 43 33211ft 461kts
07-Dec-18 09:48 36.686872 -114.377393 43 33220ft 458kts
07-Dec-18 09:49 36.775034 -114.272223 31 33244ft 451kts
07-Dec-18 09:50 36.879177 -114.189608 29 33234ft 448kts
07-Dec-18 09:51 36.983598 -114.108736 29 33232ft 447kts
07-Dec-18 09:52 37.088736 -114.027226 29 33235ft 449kts
07-Dec-18 09:53 37.187761 -113.950158 29 33237ft 453kts
07-Dec-18 09:54 37.294371 -113.866939 29 33237ft 456kts
07-Dec-18 09:55 37.400845 -113.783554 29 33238ft 459kts
07-Dec-18 09:56 37.508650 -113.698780 29 33237ft 461kts
07-Dec-18 09:57 37.616476 -113.613009 30 33238ft 463kts
07-Dec-18 09:58 37.725031 -113.526338 30 33238ft 464kts
07-Dec-18 09:59 37.833330 -113.439565 30 33238ft 465kts
07-Dec-18 10:00 37.942467 -113.351809 30 33239ft 466kts
07-Dec-18 10:01 38.048021 -113.266646 30 33235ft 466kts
07-Dec-18 10:02 38.151228 -113.183081 30 33250ft 465kts
07-Dec-18 10:03 38.259206 -113.095336 30 33261ft 461kts
07-Dec-18 10:04 38.367641 -113.010685 22 33263ft 455kts
07-Dec-18 10:05 38.483129 -112.947849 20 33262ft 453kts
07-Dec-18 10:06 38.598945 -112.886132 20 33262ft 452kts
07-Dec-18 10:07 38.714040 -112.824676 20 33263ft 453kts
07-Dec-18 10:08 38.829687 -112.762707 20 33269ft 453kts
07-Dec-18 10:09 38.945126 -112.700000 20 33128ft 458kts
07-Dec-18 10:10 39.060104 -112.637274 20 31208ft 448kts
07-Dec-18 10:11 39.166531 -112.579019 20 28863ft 440kts
07-Dec-18 10:12 39.271579 -112.521311 20 27011ft 428kts
07-Dec-18 10:13 39.381999 -112.478254 12 25154ft 413kts
07-Dec-18 10:14 39.490415 -112.442174 12 22824ft 398kts
07-Dec-18 10:15 39.595345 -112.407306 12 20529ft 384kts
07-Dec-18 10:16 39.696055 -112.373735 12 18678ft 372kts
07-Dec-18 10:17 39.790899 -112.342019 13 17076ft 363kts
07-Dec-18 10:18 39.883083 -112.311342 13 15350ft 353kts
07-Dec-18 10:19 39.969334 -112.265973 29 13538ft 344kts
07-Dec-18 10:20 40.042651 -112.194787 40 12999ft 316kts
07-Dec-18 10:21 40.108979 -112.122078 39 11619ft 338kts
07-Dec-18 10:22 40.178208 -112.046505 39 10987ft 298kts
07-Dec-18 10:23 40.235911 -111.982750 40 10999ft 260kts
07-Dec-18 10:24 40.291377 -111.923753 25 11005ft 264kts
07-Dec-18 10:25 40.356926 -111.885626 23 10116ft 260kts
07-Dec-18 10:26 40.419351 -111.849508 22 10012ft 238kts
07-Dec-18 10:27 40.476482 -111.867315 329 10001ft 216kts
07-Dec-18 10:28 40.533596 -111.903934 347 9054ft 245kts
07-Dec-18 10:29 40.599366 -111.920483 348 8508ft 246kts
07-Dec-18 10:30 40.660948 -111.935994 348 8004ft 221kts
07-Dec-18 10:31 40.720156 -111.950906 348 7993ft 222kts
07-Dec-18 10:32 40.780604 -111.966429 345 7978ft 223kts
07-Dec-18 10:33 40.836513 -112.003505 331 7983ft 231kts
07-Dec-18 10:34 40.895029 -112.038411 348 7695ft 235kts
07-Dec-18 10:35 40.954734 -112.026907 59 6374ft 234kts
07-Dec-18 10:36 40.931109 -111.965525 158 5988ft 198kts
07-Dec-18 10:38 40.879242 -111.962112 180 5809ft 166kts
07-Dec-18 10:39 40.838256 -111.962074 180 5039ft 143kts
07-Dec-18 10:40 40.799108 -111.962100 180 4279ft 138kts
07-Dec-18 10:41 40.782411 -111.960900 86 4236ft 12kts
07-Dec-18 10:42 40.780051 -111.959994 176 4236ft 12kts
07-Dec-18 10:43 40.778872 -111.958429 89 4236ft 0kts
07-Dec-18 10:44 40.778872 -111.958429 89 4236ft 0kts

Navigation Log

Ident Type
Flight plan parsing failed, navigation log unavailable